Marysville/Beale AFB, California
Current Conditions -  °F | °C
As of 4:58 AM on Friday 31 Oct 2014 (Local Time) from KBAB Reporting Station
Broken Clouds Broken Clouds  
Wind Chill: 61°   Ceiling: 14000
Heat Index: 61°   Visibility: 10mi
Dew Point: 51°   Wind: 9mph
Humidity: 71%   Direction: 170°S
Pressure: 29.86"   Gusts: NA
Location:  39.13°N, 121.45°W
Report Text: KBAB 311158Z AUTO 17008KT 10SM FEW075 BKN140 16/11 A2986 RMK AO2 SLP186 T01590107 10187 20151 58004 $
Loading
Personal Weather Stations






























Interactive Weather Map
Tropical Storm Tracking
New forecast layout! Learn more

10-Day Weather Forecast

Advertisements
Track Severe Weather on mobile